createdAt,value
2022-09-20T00:02:15.040Z,86.17
2022-09-20T00:08:53.253Z,86.20
2022-09-20T00:11:23.445Z,85.90
2022-09-20T00:13:56.870Z,86.07
2022-09-20T00:16:28.830Z,86.02
2022-09-20T00:18:58.481Z,85.37
2022-09-20T00:21:31.256Z,85.92
2022-09-20T00:24:01.307Z,85.13
2022-09-20T00:26:31.148Z,84.81
2022-09-20T00:28:59.250Z,85.11
2022-09-20T00:31:27.053Z,85.67
2022-09-20T00:34:17.912Z,85.54
2022-09-20T00:36:47.568Z,85.91
2022-09-20T00:39:18.056Z,85.64
2022-09-20T00:41:50.820Z,85.05
2022-09-20T00:48:31.728Z,85.21
2022-09-20T00:51:11.376Z,84.69
2022-09-20T00:53:47.699Z,85.06
2022-09-20T00:56:28.573Z,85.22
2022-09-20T00:59:10.745Z,84.75
2022-09-20T01:01:41.686Z,84.96
2022-09-20T01:05:27.994Z,84.45
2022-09-20T01:07:57.212Z,84.28
2022-09-20T01:10:26.940Z,84.88
2022-09-20T01:12:55.660Z,84.64
2022-09-20T01:16:15.110Z,84.09
2022-09-20T01:18:44.185Z,84.25
2022-09-20T01:21:13.506Z,84.34
2022-09-20T01:24:24.963Z,84.26
2022-09-20T01:27:11.955Z,84.28
2022-09-20T01:29:56.041Z,83.72
2022-09-20T01:32:40.364Z,84.43
2022-09-20T01:35:11.807Z,84.62
2022-09-20T01:37:59.332Z,84.02
2022-09-20T01:41:08.937Z,83.91
2022-09-20T01:44:31.059Z,84.19
2022-09-20T01:47:09.803Z,84.17
2022-09-20T01:49:52.207Z,84.68
2022-09-20T01:52:50.645Z,84.59
2022-09-20T01:55:25.804Z,84.55
2022-09-20T01:58:24.038Z,84.44
2022-09-20T02:01:13.139Z,84.16
2022-09-20T02:03:59.238Z,84.47
2022-09-20T02:06:52.604Z,84.20
2022-09-20T02:09:47.769Z,84.56
2022-09-20T02:12:35.929Z,84.50
2022-09-20T02:15:36.800Z,84.56
2022-09-20T02:18:43.959Z,84.58
2022-09-20T02:21:31.402Z,84.79
2022-09-20T02:24:21.248Z,84.62
2022-09-20T02:27:19.159Z,84.72
2022-09-20T02:29:58.515Z,84.42
2022-09-20T02:32:55.031Z,84.32
2022-09-20T02:35:38.962Z,84.06
2022-09-20T02:38:41.369Z,83.84
2022-09-20T02:41:11.794Z,84.47
2022-09-20T02:44:05.890Z,83.67
2022-09-20T02:46:45.955Z,83.92
2022-09-20T02:49:50.952Z,83.69
2022-09-20T02:52:32.794Z,83.38
2022-09-20T02:55:26.565Z,83.66
2022-09-20T02:58:10.848Z,84.18
2022-09-20T03:00:49.881Z,83.54
2022-09-20T03:03:41.206Z,83.50
2022-09-20T03:06:41.727Z,82.95
2022-09-20T03:09:31.393Z,83.79
2022-09-20T03:12:38.787Z,83.39
2022-09-20T03:15:22.484Z,83.26
2022-09-20T03:18:16.721Z,83.70
2022-09-20T03:21:05.763Z,83.58
2022-09-20T03:23:52.550Z,83.67
2022-09-20T03:26:48.854Z,83.49
2022-09-20T03:29:44.414Z,83.43
2022-09-20T03:32:40.596Z,83.69
2022-09-20T03:35:36.453Z,83.54
2022-09-20T03:38:18.859Z,83.61
2022-09-20T03:41:13.608Z,83.62
2022-09-20T03:44:02.371Z,83.73
2022-09-20T03:46:36.031Z,83.87
2022-09-20T03:49:19.923Z,83.59
2022-09-20T03:52:06.098Z,83.29
2022-09-20T03:54:55.129Z,83.08
2022-09-20T03:57:45.364Z,83.45
2022-09-20T04:00:34.345Z,83.71
2022-09-20T04:03:07.312Z,83.57
2022-09-20T04:05:34.818Z,83.59
2022-09-20T04:08:28.477Z,83.40
2022-09-20T04:11:25.260Z,83.36
2022-09-20T04:14:21.244Z,83.98
2022-09-20T04:17:41.892Z,83.38
2022-09-20T04:20:47.588Z,84.06
2022-09-20T04:23:52.022Z,83.82
2022-09-20T04:26:30.663Z,83.52
2022-09-20T04:29:14.730Z,83.50
2022-09-20T04:31:57.361Z,83.30
2022-09-20T04:35:01.513Z,83.32
2022-09-20T04:37:38.628Z,83.51
2022-09-20T04:40:32.251Z,83.44
2022-09-20T04:43:36.798Z,83.41
2022-09-20T04:46:04.886Z,83.75
2022-09-20T04:49:08.460Z,85.14
2022-09-20T04:52:14.130Z,85.20
2022-09-20T04:55:19.452Z,85.45
2022-09-20T04:58:12.153Z,85.29
2022-09-20T05:01:17.197Z,85.42
2022-09-20T05:04:12.597Z,85.44
2022-09-20T05:07:03.432Z,85.42
2022-09-20T05:09:48.743Z,85.03
2022-09-20T05:12:36.297Z,84.85
2022-09-20T05:15:41.467Z,84.99
2022-09-20T05:18:42.352Z,84.89
2022-09-20T05:21:46.782Z,83.97
2022-09-20T05:24:43.110Z,81.17
2022-09-20T05:27:23.464Z,80.03
2022-09-20T05:30:19.711Z,79.58
2022-09-20T05:33:22.322Z,79.02
2022-09-20T05:36:10.835Z,75.81
2022-09-20T05:40:15.805Z,75.19
2022-09-20T05:43:11.708Z,76.33
2022-09-20T05:46:16.642Z,76.54
2022-09-20T05:49:27.548Z,76.88
2022-09-20T05:53:27.620Z,77.34
2022-09-20T05:56:16.939Z,76.58
2022-09-20T05:59:23.755Z,77.09
2022-09-20T06:02:54.848Z,76.23
2022-09-20T06:07:32.367Z,75.43
2022-09-20T06:09:29.508Z,76.28
2022-09-20T06:12:19.189Z,74.52
2022-09-20T06:15:20.207Z,75.15
2022-09-20T06:18:08.183Z,76.08
2022-09-20T06:21:10.343Z,76.71
2022-09-20T06:23:42.907Z,78.00
2022-09-20T06:26:26.990Z,76.92
2022-09-20T06:29:04.351Z,76.24
2022-09-20T06:31:33.973Z,74.75
2022-09-20T06:34:09.203Z,72.81
2022-09-20T06:37:06.251Z,71.63
2022-09-20T06:40:11.255Z,72.18
2022-09-20T06:42:44.763Z,73.66
2022-09-20T06:45:23.919Z,72.79
2022-09-20T06:47:54.631Z,71.59
2022-09-20T06:50:24.995Z,72.14
2022-09-20T06:52:57.622Z,72.64
2022-09-20T06:55:35.136Z,71.20
2022-09-20T06:58:08.569Z,72.57
2022-09-20T07:00:40.460Z,71.32
2022-09-20T07:03:11.043Z,70.95
2022-09-20T07:05:39.607Z,69.41
2022-09-20T07:08:12.848Z,68.83
2022-09-20T07:10:43.682Z,67.01
2022-09-20T07:13:26.737Z,67.61
2022-09-20T07:16:04.143Z,65.91
2022-09-20T07:18:47.970Z,67.73
2022-09-20T07:21:19.515Z,66.95
2022-09-20T07:23:55.285Z,64.17
2022-09-20T07:26:28.036Z,65.23
2022-09-20T07:29:00.871Z,66.66
2022-09-20T07:31:36.823Z,67.25
2022-09-20T07:34:36.602Z,65.88
2022-09-20T07:37:05.378Z,67.69
2022-09-20T07:39:35.138Z,68.29
2022-09-20T07:42:07.397Z,67.48
2022-09-20T07:44:34.832Z,68.25
2022-09-20T07:47:05.970Z,68.47
2022-09-20T07:49:33.398Z,68.58
2022-09-20T07:52:05.397Z,68.14
2022-09-20T07:54:32.963Z,68.27
2022-09-20T07:57:00.397Z,66.72
2022-09-20T07:59:35.636Z,66.74
2022-09-20T08:02:06.314Z,64.70
2022-09-20T08:05:54.631Z,60.48
2022-09-20T08:08:28.457Z,56.71
2022-09-20T08:11:07.568Z,55.48
2022-09-20T08:17:02.065Z,57.31
2022-09-20T08:19:45.535Z,56.12
2022-09-20T08:22:17.894Z,56.12
2022-09-20T08:25:01.743Z,56.28
2022-09-20T08:27:56.844Z,57.66
2022-09-20T08:30:33.575Z,58.97
2022-09-20T08:33:13.729Z,59.73
2022-09-20T08:35:44.032Z,60.92
2022-09-20T08:41:36.399Z,61.63
2022-09-20T08:44:57.868Z,60.82
2022-09-20T08:47:40.532Z,61.20
2022-09-20T08:50:17.615Z,60.92
2022-09-20T08:53:02.898Z,60.79
2022-09-20T08:55:37.742Z,61.08
2022-09-20T08:58:24.834Z,61.13
2022-09-20T09:01:03.282Z,62.06
2022-09-20T09:03:34.626Z,62.05
2022-09-20T09:09:47.606Z,63.01
2022-09-20T09:12:27.218Z,63.28
2022-09-20T09:15:06.645Z,62.94
2022-09-20T09:17:48.832Z,63.32
2022-09-20T09:20:24.290Z,63.38
2022-09-20T09:23:09.300Z,63.78
2022-09-20T09:25:41.034Z,63.70
2022-09-20T09:28:15.455Z,64.32
2022-09-20T09:30:47.907Z,64.54
2022-09-20T09:33:34.205Z,64.40
2022-09-20T09:36:18.928Z,64.60
2022-09-20T09:38:58.071Z,64.11
2022-09-20T09:41:37.184Z,64.31
2022-09-20T09:44:21.950Z,64.36
2022-09-20T09:47:02.763Z,64.32
2022-09-20T09:49:36.687Z,64.03
2022-09-20T09:52:24.867Z,65.01
2022-09-20T09:55:06.339Z,65.33
2022-09-20T09:57:56.043Z,65.62
2022-09-20T10:00:27.610Z,65.65
2022-09-20T10:02:56.948Z,65.95
2022-09-20T10:05:47.463Z,65.65
2022-09-20T10:08:55.202Z,65.38
2022-09-20T10:11:40.421Z,65.08
2022-09-20T10:14:24.968Z,64.43
2022-09-20T10:17:27.009Z,63.36
2022-09-20T10:20:15.406Z,64.00
2022-09-20T10:23:30.449Z,63.19
2022-09-20T10:26:42.961Z,63.32
2022-09-20T10:29:26.594Z,62.72
2022-09-20T10:32:17.708Z,62.64
2022-09-20T10:35:06.456Z,60.67
2022-09-20T10:38:12.394Z,59.58
2022-09-20T10:41:09.437Z,59.86
2022-09-20T10:43:46.016Z,59.99
2022-09-20T10:46:39.624Z,60.07
2022-09-20T10:49:25.213Z,58.85
2022-09-20T10:52:22.135Z,58.46
2022-09-20T10:55:11.771Z,59.54
2022-09-20T10:57:57.972Z,59.98
2022-09-20T11:00:39.498Z,61.29
2022-09-20T11:03:13.801Z,61.88
2022-09-20T11:05:47.311Z,62.29
2022-09-20T11:08:56.703Z,62.58
2022-09-20T11:11:42.151Z,62.49
2022-09-20T11:14:19.630Z,63.10
2022-09-20T11:16:57.061Z,63.37
2022-09-20T11:19:34.186Z,63.07
2022-09-20T11:22:19.572Z,62.78
2022-09-20T11:25:29.430Z,63.28
2022-09-20T11:28:25.880Z,64.04
2022-09-20T11:31:22.770Z,64.75
2022-09-20T11:34:10.790Z,64.69
2022-09-20T11:37:17.258Z,65.56
2022-09-20T11:40:00.479Z,65.15
2022-09-20T11:42:39.571Z,65.13
2022-09-20T11:45:40.936Z,65.28
2022-09-20T11:48:25.326Z,64.75
2022-09-20T11:51:06.169Z,64.65
2022-09-20T11:53:56.667Z,64.06
2022-09-20T11:56:28.250Z,62.98
2022-09-20T11:59:00.079Z,62.42
2022-09-20T12:01:34.932Z,61.79
2022-09-20T12:04:33.941Z,62.23
2022-09-20T12:07:27.086Z,62.31
2022-09-20T12:10:22.829Z,60.38
2022-09-20T12:12:58.061Z,59.36
2022-09-20T12:15:32.218Z,59.32
2022-09-20T12:18:26.848Z,59.67
2022-09-20T12:21:18.241Z,61.46
2022-09-20T12:24:09.895Z,61.12
2022-09-20T12:26:47.295Z,60.92
2022-09-20T12:29:23.986Z,61.48
2022-09-20T12:31:56.053Z,62.63
2022-09-20T12:34:26.596Z,63.62
2022-09-20T12:37:06.852Z,64.51
2022-09-20T12:39:40.377Z,64.68
2022-09-20T12:42:13.003Z,64.53
2022-09-20T12:45:09.524Z,63.92
2022-09-20T12:47:56.960Z,62.88
2022-09-20T12:50:47.370Z,62.48
2022-09-20T12:53:21.793Z,63.04
2022-09-20T12:56:13.296Z,63.25
2022-09-20T12:58:48.838Z,63.50
2022-09-20T13:01:40.388Z,63.41
2022-09-20T13:05:22.256Z,64.22
2022-09-20T13:07:44.234Z,64.25
2022-09-20T13:10:22.696Z,64.41
2022-09-20T13:12:55.740Z,64.59
2022-09-20T13:15:23.881Z,65.27
2022-09-20T13:17:56.699Z,65.44
2022-09-20T13:20:31.394Z,65.63
2022-09-20T13:23:00.736Z,65.67
2022-09-20T13:25:29.687Z,66.15
2022-09-20T13:28:53.806Z,66.62
2022-09-20T13:31:26.745Z,66.75
2022-09-20T13:33:55.426Z,66.74
2022-09-20T13:36:27.613Z,66.66
2022-09-20T13:38:57.656Z,66.31
2022-09-20T13:41:29.792Z,66.46
2022-09-20T13:46:44.842Z,66.29
2022-09-20T13:49:21.013Z,65.97
2022-09-20T13:51:49.914Z,66.21
2022-09-20T13:54:30.050Z,66.63
2022-09-20T13:57:12.700Z,66.86
2022-09-20T13:59:45.651Z,67.01
2022-09-20T14:02:38.747Z,66.82
2022-09-20T14:05:17.342Z,66.67
2022-09-20T14:07:47.152Z,66.38
2022-09-20T14:10:57.224Z,66.26
2022-09-20T14:13:24.764Z,66.04
2022-09-20T14:15:52.292Z,66.27
2022-09-20T14:18:31.791Z,66.37
2022-09-20T14:21:02.535Z,66.56
2022-09-20T14:23:43.883Z,66.53
2022-09-20T14:26:17.046Z,67.10
2022-09-20T14:28:49.043Z,66.64
2022-09-20T14:31:24.832Z,67.15
2022-09-20T14:33:58.057Z,67.14
2022-09-20T14:36:40.858Z,67.31
2022-09-20T14:43:28.715Z,67.68
2022-09-20T14:46:07.070Z,67.92
2022-09-20T14:48:40.480Z,68.19
2022-09-20T14:51:19.293Z,68.04
2022-09-20T14:54:13.840Z,67.87
2022-09-20T14:56:57.817Z,68.37
2022-09-20T14:59:27.531Z,68.20
2022-09-20T15:02:06.066Z,68.11
2022-09-20T15:04:37.987Z,68.24
2022-09-20T15:07:15.459Z,68.14
2022-09-20T15:09:43.098Z,68.54
2022-09-20T15:12:19.684Z,68.51
2022-09-20T15:14:55.205Z,68.49
2022-09-20T15:17:22.796Z,68.51
2022-09-20T15:19:50.476Z,68.44
2022-09-20T15:22:17.936Z,68.99
2022-09-20T15:24:49.910Z,68.53
2022-09-20T15:27:19.755Z,68.54
2022-09-20T15:29:47.405Z,68.67
2022-09-20T15:32:17.405Z,68.92
2022-09-20T15:34:50.090Z,69.00
2022-09-20T15:37:19.929Z,69.19
2022-09-20T15:39:48.599Z,69.19
2022-09-20T15:42:16.035Z,69.51
2022-09-20T15:44:44.514Z,69.89
2022-09-20T15:47:15.951Z,69.89
2022-09-20T15:49:46.832Z,70.11
2022-09-20T15:52:14.156Z,70.05
2022-09-20T15:54:41.735Z,70.08
2022-09-20T15:57:09.332Z,70.60
2022-09-20T15:59:36.732Z,70.77
2022-09-20T16:02:04.537Z,70.92
2022-09-20T16:04:35.238Z,71.08
2022-09-20T16:07:03.968Z,70.96
2022-09-20T16:09:35.157Z,70.61
2022-09-20T16:12:06.258Z,71.29
2022-09-20T16:14:34.972Z,71.66
2022-09-20T16:17:03.157Z,71.39
2022-09-20T16:19:30.896Z,71.57
2022-09-20T16:22:00.688Z,71.52
2022-09-20T16:24:31.542Z,71.91
2022-09-20T16:27:01.060Z,72.30
2022-09-20T16:29:30.646Z,72.40
2022-09-20T16:31:58.958Z,72.03
2022-09-20T16:34:37.946Z,73.38
2022-09-20T16:37:12.185Z,72.74
2022-09-20T16:39:42.093Z,72.94
2022-09-20T16:42:12.655Z,72.78
2022-09-20T16:44:43.466Z,73.42
2022-09-20T16:47:18.514Z,73.37
2022-09-20T16:49:48.650Z,73.29
2022-09-20T16:52:15.903Z,73.26
2022-09-20T16:54:46.105Z,74.17
2022-09-20T16:57:14.794Z,74.16
2022-09-20T16:59:45.575Z,74.24
2022-09-20T17:02:17.960Z,74.13
2022-09-20T17:04:47.668Z,74.33
2022-09-20T17:07:15.158Z,74.10
2022-09-20T17:09:45.257Z,74.49
2022-09-20T17:12:13.992Z,74.47
2022-09-20T17:14:44.080Z,75.00
2022-09-20T17:17:13.028Z,75.01
2022-09-20T17:19:40.421Z,74.97
2022-09-20T17:22:09.403Z,74.89
2022-09-20T17:24:37.085Z,75.01
2022-09-20T17:27:05.526Z,75.30
2022-09-20T17:29:36.109Z,75.13
2022-09-20T17:32:04.481Z,75.43
2022-09-20T17:34:34.753Z,75.57
2022-09-20T17:37:04.566Z,75.66
2022-09-20T17:39:31.920Z,75.78
2022-09-20T17:41:59.351Z,75.97
2022-09-20T17:44:35.498Z,76.24
2022-09-20T17:47:04.907Z,76.02
2022-09-20T17:49:32.435Z,76.09
2022-09-20T17:52:01.628Z,76.63
2022-09-20T17:54:33.279Z,77.09
2022-09-20T17:57:02.871Z,76.93
2022-09-20T17:59:34.553Z,76.42
2022-09-20T18:02:01.969Z,77.43
2022-09-20T18:04:29.550Z,77.47
2022-09-20T18:06:56.972Z,77.24
2022-09-20T18:09:27.353Z,77.47
2022-09-20T18:11:55.929Z,77.65
2022-09-20T18:14:25.959Z,77.78
2022-09-20T18:16:58.253Z,77.65
2022-09-20T18:19:33.077Z,77.55
2022-09-20T18:22:02.673Z,77.83
2022-09-20T18:24:32.734Z,77.79
2022-09-20T18:27:01.194Z,78.29
2022-09-20T18:29:36.932Z,80.13
2022-09-20T18:32:06.501Z,78.58
2022-09-20T18:35:34.132Z,80.59
2022-09-20T18:38:05.327Z,79.88
2022-09-20T18:40:35.949Z,79.96
2022-09-20T18:43:09.608Z,80.53
2022-09-20T18:45:52.867Z,81.99
2022-09-20T18:49:43.241Z,81.60
2022-09-20T18:52:45.778Z,82.45
2022-09-20T18:55:29.044Z,81.49
2022-09-20T19:02:08.917Z,83.03
2022-09-20T19:05:18.901Z,83.60
2022-09-20T19:08:37.657Z,84.35
2022-09-20T19:11:15.478Z,83.69
2022-09-20T19:14:00.952Z,83.65
2022-09-20T19:16:42.071Z,83.96
2022-09-20T19:19:19.435Z,83.52
2022-09-20T19:28:19.332Z,83.60
2022-09-20T19:30:56.460Z,83.79
2022-09-20T19:33:28.223Z,84.59
2022-09-20T19:35:59.520Z,84.38
2022-09-20T19:38:48.214Z,85.40
2022-09-20T19:41:49.374Z,86.34
2022-09-20T19:44:29.074Z,84.79
2022-09-20T19:47:32.278Z,87.30
2022-09-20T19:50:18.130Z,86.71
2022-09-20T19:52:46.227Z,85.26
2022-09-20T19:55:15.667Z,85.78
2022-09-20T19:57:47.266Z,86.08
2022-09-20T20:00:18.854Z,86.21
2022-09-20T20:02:47.284Z,86.28
2022-09-20T20:09:50.719Z,88.71
2022-09-20T20:12:49.196Z,87.19
2022-09-20T20:15:45.560Z,87.46
2022-09-20T20:18:41.610Z,88.12
2022-09-20T20:21:22.323Z,87.67
2022-09-20T20:23:52.642Z,87.15
2022-09-20T20:26:21.178Z,86.73
2022-09-20T20:28:55.032Z,87.16
2022-09-20T20:31:23.215Z,86.97
2022-09-20T20:33:51.864Z,87.28
2022-09-20T20:36:19.465Z,87.37
2022-09-20T20:38:50.052Z,87.51
2022-09-20T20:41:21.333Z,88.12
2022-09-20T20:43:57.397Z,88.55
2022-09-20T20:46:26.022Z,88.00
2022-09-20T20:48:53.804Z,88.64
2022-09-20T20:51:23.077Z,88.35
2022-09-20T20:54:00.961Z,88.94
2022-09-20T20:56:30.334Z,88.19
2022-09-20T20:59:35.376Z,88.73
2022-09-20T21:02:07.694Z,88.33
2022-09-20T21:04:39.556Z,88.28
2022-09-20T21:07:07.855Z,88.64
2022-09-20T21:09:37.795Z,88.58
2022-09-20T21:12:06.729Z,88.38
2022-09-20T21:14:35.576Z,88.38
2022-09-20T21:17:03.078Z,88.62
2022-09-20T21:19:30.421Z,88.88
2022-09-20T21:21:57.899Z,88.92
2022-09-20T21:24:28.093Z,88.94
2022-09-20T21:26:55.992Z,88.72
2022-09-20T21:29:23.456Z,89.09
2022-09-20T21:31:50.959Z,89.31
2022-09-20T21:34:18.355Z,89.50
2022-09-20T21:36:45.651Z,88.92
2022-09-20T21:39:13.419Z,89.12
2022-09-20T21:41:41.435Z,89.28
2022-09-20T21:44:15.195Z,89.29
2022-09-20T21:46:42.919Z,88.78
2022-09-20T21:49:12.253Z,89.18
2022-09-20T21:51:45.383Z,89.50
2022-09-20T21:54:16.436Z,89.45
2022-09-20T21:56:46.110Z,89.50
2022-09-20T21:59:13.580Z,89.73
2022-09-20T22:01:41.418Z,88.96
2022-09-20T22:04:15.259Z,89.75
2022-09-20T22:06:44.441Z,89.10
2022-09-20T22:09:16.509Z,89.72
2022-09-20T22:11:46.329Z,89.64
2022-09-20T22:14:18.771Z,90.26
2022-09-20T22:16:47.870Z,90.02
2022-09-20T22:19:18.850Z,89.69
2022-09-20T22:21:51.568Z,90.07
2022-09-20T22:25:10.188Z,90.53
2022-09-20T22:27:37.716Z,89.86
2022-09-20T22:30:07.731Z,90.24
2022-09-20T22:32:38.435Z,90.52
2022-09-20T22:35:06.225Z,90.20
2022-09-20T22:37:33.779Z,90.67
2022-09-20T22:40:01.106Z,90.94
2022-09-20T22:42:28.357Z,91.12
2022-09-20T22:44:56.257Z,90.39
2022-09-20T22:47:26.533Z,90.37
2022-09-20T22:49:54.555Z,90.74
2022-09-20T22:53:00.224Z,90.96
2022-09-20T22:56:02.069Z,90.76
2022-09-20T23:03:18.627Z,90.53
2022-09-20T23:05:47.001Z,90.50
2022-09-20T23:08:14.420Z,90.55
2022-09-20T23:10:41.699Z,90.43
2022-09-20T23:13:08.895Z,90.52
2022-09-20T23:15:38.351Z,90.70
2022-09-20T23:18:05.671Z,90.87
2022-09-20T23:20:33.681Z,90.31
2022-09-20T23:23:00.877Z,90.11
2022-09-20T23:25:29.218Z,90.36
2022-09-20T23:27:56.646Z,91.13
2022-09-20T23:30:24.298Z,90.85
2022-09-20T23:32:54.199Z,91.78
2022-09-20T23:35:21.744Z,91.07
2022-09-20T23:37:49.091Z,90.78
2022-09-20T23:40:16.498Z,90.90
2022-09-20T23:42:43.740Z,90.90
2022-09-20T23:45:12.187Z,91.16
2022-09-20T23:47:39.468Z,91.34
2022-09-20T23:50:07.849Z,91.28
2022-09-20T23:52:35.626Z,91.73
2022-09-20T23:55:04.488Z,91.53
2022-09-20T23:57:34.119Z,90.95
